sensor_id;sensor_type;location;lat;lon;timestamp;temperature;humidity
17200;DHT22;8716;52.268;20.968;2023-02-28T00:01:32;-0.90;99.90
17200;DHT22;8716;52.268;20.968;2023-02-28T00:04:01;-1.00;99.90
17200;DHT22;8716;52.268;20.968;2023-02-28T00:06:30;-1.00;99.90
17200;DHT22;8716;52.268;20.968;2023-02-28T00:08:59;-1.00;99.90
17200;DHT22;8716;52.268;20.968;2023-02-28T00:11:28;-1.00;99.90
17200;DHT22;8716;52.268;20.968;2023-02-28T00:13:57;-1.00;99.90
17200;DHT22;8716;52.268;20.968;2023-02-28T00:16:25;-1.10;99.90
17200;DHT22;8716;52.268;20.968;2023-02-28T00:18:53;-1.00;99.90
17200;DHT22;8716;52.268;20.968;2023-02-28T00:21:24;-1.10;99.90
17200;DHT22;8716;52.268;20.968;2023-02-28T00:23:53;-1.10;99.90
17200;DHT22;8716;52.268;20.968;2023-02-28T00:26:23;-1.10;99.90
17200;DHT22;8716;52.268;20.968;2023-02-28T00:28:51;-1.20;99.90
17200;DHT22;8716;52.268;20.968;2023-02-28T00:31:22;-1.20;99.90
17200;DHT22;8716;52.268;20.968;2023-02-28T00:33:50;-1.30;99.90
17200;DHT22;8716;52.268;20.968;2023-02-28T00:36:20;-1.30;99.90
17200;DHT22;8716;52.268;20.968;2023-02-28T00:38:48;-1.30;99.90
17200;DHT22;8716;52.268;20.968;2023-02-28T00:41:17;-1.30;99.90
17200;DHT22;8716;52.268;20.968;2023-02-28T00:43:48;-1.30;99.90
17200;DHT22;8716;52.268;20.968;2023-02-28T00:46:16;-1.30;99.90
17200;DHT22;8716;52.268;20.968;2023-02-28T00:48:45;-1.40;99.90
17200;DHT22;8716;52.268;20.968;2023-02-28T00:51:14;-1.40;99.90
17200;DHT22;8716;52.268;20.968;2023-02-28T00:53:42;-1.30;99.90
17200;DHT22;8716;52.268;20.968;2023-02-28T00:56:10;-1.40;99.90
17200;DHT22;8716;52.268;20.968;2023-02-28T00:58:39;-1.40;99.90
17200;DHT22;8716;52.268;20.968;2023-02-28T01:01:09;-1.50;99.90
17200;DHT22;8716;52.268;20.968;2023-02-28T01:03:37;-1.50;99.90
17200;DHT22;8716;52.268;20.968;2023-02-28T01:06:06;-1.50;99.90
17200;DHT22;8716;52.268;20.968;2023-02-28T01:08:34;-1.50;99.90
17200;DHT22;8716;52.268;20.968;2023-02-28T01:11:08;-1.40;99.90
17200;DHT22;8716;52.268;20.968;2023-02-28T01:13:36;-1.60;99.90
17200;DHT22;8716;52.268;20.968;2023-02-28T01:16:09;-1.60;99.90
17200;DHT22;8716;52.268;20.968;2023-02-28T01:18:37;-1.60;99.90
17200;DHT22;8716;52.268;20.968;2023-02-28T01:21:08;-1.70;99.90
17200;DHT22;8716;52.268;20.968;2023-02-28T01:23:37;-1.70;99.90
17200;DHT22;8716;52.268;20.968;2023-02-28T01:26:06;-1.70;99.90
17200;DHT22;8716;52.268;20.968;2023-02-28T01:28:38;-1.70;99.90
17200;DHT22;8716;52.268;20.968;2023-02-28T01:31:08;-1.70;99.90
17200;DHT22;8716;52.268;20.968;2023-02-28T01:33:37;-1.80;99.90
17200;DHT22;8716;52.268;20.968;2023-02-28T01:36:08;-1.80;99.90
17200;DHT22;8716;52.268;20.968;2023-02-28T01:38:37;-1.80;99.90
17200;DHT22;8716;52.268;20.968;2023-02-28T01:41:06;-1.80;99.90
17200;DHT22;8716;52.268;20.968;2023-02-28T01:43:57;-1.80;99.90
17200;DHT22;8716;52.268;20.968;2023-02-28T01:46:27;-1.80;99.90
17200;DHT22;8716;52.268;20.968;2023-02-28T01:49:05;-1.80;99.90
17200;DHT22;8716;52.268;20.968;2023-02-28T01:51:39;-1.90;99.90
17200;DHT22;8716;52.268;20.968;2023-02-28T01:54:16;-1.90;99.90
17200;DHT22;8716;52.268;20.968;2023-02-28T01:56:49;-1.90;99.90
17200;DHT22;8716;52.268;20.968;2023-02-28T01:59:23;-2.00;99.90
17200;DHT22;8716;52.268;20.968;2023-02-28T02:01:56;-2.00;99.90
17200;DHT22;8716;52.268;20.968;2023-02-28T02:04:30;-1.90;99.90
17200;DHT22;8716;52.268;20.968;2023-02-28T02:07:03;-2.00;99.90
17200;DHT22;8716;52.268;20.968;2023-02-28T02:09:31;-2.00;99.90
17200;DHT22;8716;52.268;20.968;2023-02-28T02:12:02;-2.00;99.90
17200;DHT22;8716;52.268;20.968;2023-02-28T02:14:57;-2.00;99.90
17200;DHT22;8716;52.268;20.968;2023-02-28T02:17:35;-2.10;99.90
17200;DHT22;8716;52.268;20.968;2023-02-28T02:20:43;-2.00;99.90
17200;DHT22;8716;52.268;20.968;2023-02-28T02:32:20;-2.20;99.90
17200;DHT22;8716;52.268;20.968;2023-02-28T02:35:08;-2.20;99.90
17200;DHT22;8716;52.268;20.968;2023-02-28T02:37:47;-2.30;99.90
17200;DHT22;8716;52.268;20.968;2023-02-28T02:40:20;-2.20;99.90
17200;DHT22;8716;52.268;20.968;2023-02-28T02:42:52;-2.20;99.90
17200;DHT22;8716;52.268;20.968;2023-02-28T02:45:25;-2.20;99.90
17200;DHT22;8716;52.268;20.968;2023-02-28T02:47:59;-2.30;99.90
17200;DHT22;8716;52.268;20.968;2023-02-28T02:50:34;-2.30;99.90
17200;DHT22;8716;52.268;20.968;2023-02-28T02:53:06;-2.30;99.90
17200;DHT22;8716;52.268;20.968;2023-02-28T02:55:38;-2.30;99.90
17200;DHT22;8716;52.268;20.968;2023-02-28T02:58:11;-2.30;99.90
17200;DHT22;8716;52.268;20.968;2023-02-28T03:00:47;-2.40;99.90
17200;DHT22;8716;52.268;20.968;2023-02-28T03:03:18;-2.30;99.90
17200;DHT22;8716;52.268;20.968;2023-02-28T03:05:58;-2.30;99.90
17200;DHT22;8716;52.268;20.968;2023-02-28T03:08:28;-2.40;99.90
17200;DHT22;8716;52.268;20.968;2023-02-28T03:10:59;-2.40;99.90
17200;DHT22;8716;52.268;20.968;2023-02-28T03:13:47;-2.40;99.90
17200;DHT22;8716;52.268;20.968;2023-02-28T03:16:38;-2.40;99.90
17200;DHT22;8716;52.268;20.968;2023-02-28T03:19:26;-2.40;99.90
17200;DHT22;8716;52.268;20.968;2023-02-28T03:22:08;-2.40;99.90
17200;DHT22;8716;52.268;20.968;2023-02-28T03:24:45;-2.40;99.90
17200;DHT22;8716;52.268;20.968;2023-02-28T03:27:21;-2.40;99.90
17200;DHT22;8716;52.268;20.968;2023-02-28T03:30:00;-2.40;99.90
17200;DHT22;8716;52.268;20.968;2023-02-28T03:32:34;-2.50;99.90
17200;DHT22;8716;52.268;20.968;2023-02-28T03:35:08;-2.50;99.90
17200;DHT22;8716;52.268;20.968;2023-02-28T03:37:43;-2.50;99.90
17200;DHT22;8716;52.268;20.968;2023-02-28T03:40:15;-2.50;99.90
17200;DHT22;8716;52.268;20.968;2023-02-28T03:42:47;-2.50;99.90
17200;DHT22;8716;52.268;20.968;2023-02-28T03:45:19;-2.50;99.90
17200;DHT22;8716;52.268;20.968;2023-02-28T03:47:52;-2.50;99.90
17200;DHT22;8716;52.268;20.968;2023-02-28T03:50:23;-2.40;99.90
17200;DHT22;8716;52.268;20.968;2023-02-28T03:52:57;-2.50;99.90
17200;DHT22;8716;52.268;20.968;2023-02-28T03:55:32;-2.50;99.90
17200;DHT22;8716;52.268;20.968;2023-02-28T03:58:07;-2.50;99.90
17200;DHT22;8716;52.268;20.968;2023-02-28T04:00:42;-2.60;99.90
17200;DHT22;8716;52.268;20.968;2023-02-28T04:03:12;-2.50;99.90
17200;DHT22;8716;52.268;20.968;2023-02-28T04:05:51;-2.50;99.90
17200;DHT22;8716;52.268;20.968;2023-02-28T04:08:22;-2.50;99.90
17200;DHT22;8716;52.268;20.968;2023-02-28T04:10:58;-2.50;99.90
17200;DHT22;8716;52.268;20.968;2023-02-28T04:13:27;-2.50;99.90
17200;DHT22;8716;52.268;20.968;2023-02-28T04:15:56;-2.60;99.90
17200;DHT22;8716;52.268;20.968;2023-02-28T04:18:24;-2.60;99.90
17200;DHT22;8716;52.268;20.968;2023-02-28T04:20:52;-2.60;99.90
17200;DHT22;8716;52.268;20.968;2023-02-28T04:23:22;-2.60;99.90
17200;DHT22;8716;52.268;20.968;2023-02-28T04:25:54;-2.60;99.90
17200;DHT22;8716;52.268;20.968;2023-02-28T04:28:22;-2.60;99.90
17200;DHT22;8716;52.268;20.968;2023-02-28T04:30:55;-2.70;99.90
17200;DHT22;8716;52.268;20.968;2023-02-28T04:33:23;-2.70;99.90
17200;DHT22;8716;52.268;20.968;2023-02-28T04:35:58;-2.70;99.90
17200;DHT22;8716;52.268;20.968;2023-02-28T04:38:29;-2.70;99.90
17200;DHT22;8716;52.268;20.968;2023-02-28T04:40:58;-2.70;99.90
17200;DHT22;8716;52.268;20.968;2023-02-28T04:43:26;-2.70;99.90
17200;DHT22;8716;52.268;20.968;2023-02-28T04:45:55;-2.70;99.90
17200;DHT22;8716;52.268;20.968;2023-02-28T04:48:28;-2.70;99.90
17200;DHT22;8716;52.268;20.968;2023-02-28T04:51:00;-2.70;99.90
17200;DHT22;8716;52.268;20.968;2023-02-28T04:53:30;-2.70;99.90
17200;DHT22;8716;52.268;20.968;2023-02-28T04:55:59;-2.70;99.90
17200;DHT22;8716;52.268;20.968;2023-02-28T04:58:30;-2.70;99.90
17200;DHT22;8716;52.268;20.968;2023-02-28T05:01:02;-2.70;99.90
17200;DHT22;8716;52.268;20.968;2023-02-28T05:03:31;-2.70;99.90
17200;DHT22;8716;52.268;20.968;2023-02-28T05:05:59;-2.70;99.90
17200;DHT22;8716;52.268;20.968;2023-02-28T05:08:31;-2.70;99.90
17200;DHT22;8716;52.268;20.968;2023-02-28T05:11:00;-2.70;99.90
17200;DHT22;8716;52.268;20.968;2023-02-28T05:13:29;-2.80;99.90
17200;DHT22;8716;52.268;20.968;2023-02-28T05:15:57;-2.70;99.90
17200;DHT22;8716;52.268;20.968;2023-02-28T05:18:25;-2.80;99.90
17200;DHT22;8716;52.268;20.968;2023-02-28T05:20:54;-2.80;99.90
17200;DHT22;8716;52.268;20.968;2023-02-28T05:23:22;-2.80;99.90
17200;DHT22;8716;52.268;20.968;2023-02-28T05:25:52;-2.80;99.90
17200;DHT22;8716;52.268;20.968;2023-02-28T05:28:21;-2.70;99.90
17200;DHT22;8716;52.268;20.968;2023-02-28T05:30:49;-2.70;99.90
17200;DHT22;8716;52.268;20.968;2023-02-28T05:33:17;-2.70;99.90
17200;DHT22;8716;52.268;20.968;2023-02-28T05:35:46;-2.70;99.90
17200;DHT22;8716;52.268;20.968;2023-02-28T05:38:14;-2.70;99.90
17200;DHT22;8716;52.268;20.968;2023-02-28T05:40:43;-2.70;99.90
17200;DHT22;8716;52.268;20.968;2023-02-28T05:43:12;-2.70;99.90
17200;DHT22;8716;52.268;20.968;2023-02-28T05:45:41;-2.70;99.90
17200;DHT22;8716;52.268;20.968;2023-02-28T05:48:09;-2.60;99.90
17200;DHT22;8716;52.268;20.968;2023-02-28T05:50:37;-2.60;99.90
17200;DHT22;8716;52.268;20.968;2023-02-28T05:53:06;-2.60;99.90
17200;DHT22;8716;52.268;20.968;2023-02-28T05:55:36;-2.60;99.90
17200;DHT22;8716;52.268;20.968;2023-02-28T05:58:04;-2.60;99.90
17200;DHT22;8716;52.268;20.968;2023-02-28T06:00:35;-2.50;99.90
17200;DHT22;8716;52.268;20.968;2023-02-28T06:03:03;-2.50;99.90
17200;DHT22;8716;52.268;20.968;2023-02-28T06:05:31;-2.40;99.90
17200;DHT22;8716;52.268;20.968;2023-02-28T06:08:00;-2.40;99.90
17200;DHT22;8716;52.268;20.968;2023-02-28T06:10:28;-2.40;99.90
17200;DHT22;8716;52.268;20.968;2023-02-28T06:12:59;-2.30;99.90
17200;DHT22;8716;52.268;20.968;2023-02-28T06:15:29;-2.30;99.90
17200;DHT22;8716;52.268;20.968;2023-02-28T06:17:59;-2.20;99.90
17200;DHT22;8716;52.268;20.968;2023-02-28T06:20:28;-2.10;99.90
17200;DHT22;8716;52.268;20.968;2023-02-28T06:22:57;-2.10;99.90
17200;DHT22;8716;52.268;20.968;2023-02-28T06:25:26;-2.00;99.90
17200;DHT22;8716;52.268;20.968;2023-02-28T06:27:55;-2.00;99.90
17200;DHT22;8716;52.268;20.968;2023-02-28T06:30:24;-1.90;99.90
17200;DHT22;8716;52.268;20.968;2023-02-28T06:32:54;-1.80;99.90
17200;DHT22;8716;52.268;20.968;2023-02-28T06:35:26;-1.80;99.90
17200;DHT22;8716;52.268;20.968;2023-02-28T06:37:54;-1.70;99.90
17200;DHT22;8716;52.268;20.968;2023-02-28T06:40:23;-1.70;99.90
17200;DHT22;8716;52.268;20.968;2023-02-28T06:42:51;-1.50;99.90
17200;DHT22;8716;52.268;20.968;2023-02-28T06:45:19;-1.50;99.90
17200;DHT22;8716;52.268;20.968;2023-02-28T06:47:48;-1.40;99.90
17200;DHT22;8716;52.268;20.968;2023-02-28T06:50:21;-1.30;99.90
17200;DHT22;8716;52.268;20.968;2023-02-28T06:52:51;-1.20;99.90
17200;DHT22;8716;52.268;20.968;2023-02-28T06:55:21;-1.10;99.90
17200;DHT22;8716;52.268;20.968;2023-02-28T06:57:49;-1.00;99.90
17200;DHT22;8716;52.268;20.968;2023-02-28T07:00:18;-0.90;99.90
17200;DHT22;8716;52.268;20.968;2023-02-28T07:02:47;-0.70;99.90
17200;DHT22;8716;52.268;20.968;2023-02-28T07:05:15;-0.60;99.90
17200;DHT22;8716;52.268;20.968;2023-02-28T07:07:43;-0.60;99.90
17200;DHT22;8716;52.268;20.968;2023-02-28T07:10:17;-0.50;99.90
17200;DHT22;8716;52.268;20.968;2023-02-28T07:12:46;-0.40;99.90
17200;DHT22;8716;52.268;20.968;2023-02-28T07:15:17;-0.40;99.90
17200;DHT22;8716;52.268;20.968;2023-02-28T07:17:45;-0.30;99.90
17200;DHT22;8716;52.268;20.968;2023-02-28T07:20:14;-0.20;99.90
17200;DHT22;8716;52.268;20.968;2023-02-28T07:22:42;0.00;99.90
17200;DHT22;8716;52.268;20.968;2023-02-28T07:25:10;0.00;99.90
17200;DHT22;8716;52.268;20.968;2023-02-28T07:27:40;0.10;99.90
17200;DHT22;8716;52.268;20.968;2023-02-28T07:30:09;0.20;99.90
17200;DHT22;8716;52.268;20.968;2023-02-28T07:32:38;0.30;99.90
17200;DHT22;8716;52.268;20.968;2023-02-28T07:35:10;0.40;99.90
17200;DHT22;8716;52.268;20.968;2023-02-28T07:37:38;0.50;99.90
17200;DHT22;8716;52.268;20.968;2023-02-28T07:40:10;0.50;99.90
17200;DHT22;8716;52.268;20.968;2023-02-28T07:42:41;0.50;99.90
17200;DHT22;8716;52.268;20.968;2023-02-28T07:45:11;0.60;99.90
17200;DHT22;8716;52.268;20.968;2023-02-28T07:47:42;0.70;99.90
17200;DHT22;8716;52.268;20.968;2023-02-28T07:50:12;0.80;99.90
17200;DHT22;8716;52.268;20.968;2023-02-28T07:52:41;0.80;99.90
17200;DHT22;8716;52.268;20.968;2023-02-28T07:55:10;0.90;99.90
17200;DHT22;8716;52.268;20.968;2023-02-28T07:57:40;1.00;99.90
17200;DHT22;8716;52.268;20.968;2023-02-28T08:00:11;1.10;99.90
17200;DHT22;8716;52.268;20.968;2023-02-28T08:02:40;1.20;99.90
17200;DHT22;8716;52.268;20.968;2023-02-28T08:05:09;1.30;99.90
17200;DHT22;8716;52.268;20.968;2023-02-28T08:07:37;1.40;99.90
17200;DHT22;8716;52.268;20.968;2023-02-28T08:10:07;1.40;99.90
17200;DHT22;8716;52.268;20.968;2023-02-28T08:12:36;1.50;99.90
17200;DHT22;8716;52.268;20.968;2023-02-28T08:15:07;1.60;99.90
17200;DHT22;8716;52.268;20.968;2023-02-28T08:17:36;1.60;99.90
17200;DHT22;8716;52.268;20.968;2023-02-28T08:20:05;1.70;99.90
17200;DHT22;8716;52.268;20.968;2023-02-28T08:22:34;1.80;99.90
17200;DHT22;8716;52.268;20.968;2023-02-28T08:25:03;1.90;99.90
17200;DHT22;8716;52.268;20.968;2023-02-28T08:27:31;2.00;99.90
17200;DHT22;8716;52.268;20.968;2023-02-28T08:29:59;2.10;99.90
17200;DHT22;8716;52.268;20.968;2023-02-28T08:32:29;2.00;99.90
17200;DHT22;8716;52.268;20.968;2023-02-28T08:34:57;2.20;99.90
17200;DHT22;8716;52.268;20.968;2023-02-28T08:37:26;2.20;99.90
17200;DHT22;8716;52.268;20.968;2023-02-28T08:39:54;2.30;99.90
17200;DHT22;8716;52.268;20.968;2023-02-28T08:42:22;2.40;99.90
17200;DHT22;8716;52.268;20.968;2023-02-28T08:44:51;2.50;99.90
17200;DHT22;8716;52.268;20.968;2023-02-28T08:47:20;2.60;99.90
17200;DHT22;8716;52.268;20.968;2023-02-28T08:49:49;2.70;99.90
17200;DHT22;8716;52.268;20.968;2023-02-28T08:52:18;2.90;99.90
17200;DHT22;8716;52.268;20.968;2023-02-28T08:54:47;3.70;99.90
17200;DHT22;8716;52.268;20.968;2023-02-28T08:57:15;5.50;99.90
17200;DHT22;8716;52.268;20.968;2023-02-28T08:59:43;7.50;99.90
17200;DHT22;8716;52.268;20.968;2023-02-28T09:02:13;9.40;99.40
17200;DHT22;8716;52.268;20.968;2023-02-28T09:04:44;11.20;94.50
17200;DHT22;8716;52.268;20.968;2023-02-28T09:07:14;12.90;88.50
17200;DHT22;8716;52.268;20.968;2023-02-28T09:09:43;14.50;77.40
17200;DHT22;8716;52.268;20.968;2023-02-28T09:12:22;15.70;71.10
17200;DHT22;8716;52.268;20.968;2023-02-28T09:14:53;16.80;67.10
17200;DHT22;8716;52.268;20.968;2023-02-28T09:17:21;17.90;63.20
17200;DHT22;8716;52.268;20.968;2023-02-28T09:19:57;18.60;59.90
17200;DHT22;8716;52.268;20.968;2023-02-28T09:22:26;19.30;56.40
17200;DHT22;8716;52.268;20.968;2023-02-28T09:24:55;19.90;55.10
17200;DHT22;8716;52.268;20.968;2023-02-28T09:27:23;20.10;53.60
17200;DHT22;8716;52.268;20.968;2023-02-28T09:29:52;20.20;52.70
17200;DHT22;8716;52.268;20.968;2023-02-28T09:32:20;20.50;51.00
17200;DHT22;8716;52.268;20.968;2023-02-28T09:34:50;20.80;51.00
17200;DHT22;8716;52.268;20.968;2023-02-28T09:37:19;21.30;50.80
17200;DHT22;8716;52.268;20.968;2023-02-28T09:39:48;21.80;50.00
17200;DHT22;8716;52.268;20.968;2023-02-28T09:42:23;22.30;48.60
17200;DHT22;8716;52.268;20.968;2023-02-28T09:44:53;22.70;47.70
17200;DHT22;8716;52.268;20.968;2023-02-28T09:47:29;22.90;46.60
17200;DHT22;8716;52.268;20.968;2023-02-28T09:50:15;23.10;46.30
17200;DHT22;8716;52.268;20.968;2023-02-28T09:52:46;23.30;45.80
17200;DHT22;8716;52.268;20.968;2023-02-28T09:55:23;23.50;45.60
17200;DHT22;8716;52.268;20.968;2023-02-28T09:57:57;23.50;45.10
17200;DHT22;8716;52.268;20.968;2023-02-28T10:00:31;23.50;45.00
17200;DHT22;8716;52.268;20.968;2023-02-28T10:03:13;23.30;44.60
17200;DHT22;8716;52.268;20.968;2023-02-28T10:05:51;23.30;45.00
17200;DHT22;8716;52.268;20.968;2023-02-28T10:08:25;23.30;45.20
17200;DHT22;8716;52.268;20.968;2023-02-28T10:10:56;23.40;44.80
17200;DHT22;8716;52.268;20.968;2023-02-28T10:13:34;23.50;45.70
17200;DHT22;8716;52.268;20.968;2023-02-28T10:16:07;23.50;44.50
17200;DHT22;8716;52.268;20.968;2023-02-28T10:18:42;23.40;44.30
17200;DHT22;8716;52.268;20.968;2023-02-28T10:21:18;23.20;44.20
17200;DHT22;8716;52.268;20.968;2023-02-28T10:23:48;22.90;44.30
17200;DHT22;8716;52.268;20.968;2023-02-28T10:26:20;22.80;44.70
17200;DHT22;8716;52.268;20.968;2023-02-28T10:28:52;22.80;44.40
17200;DHT22;8716;52.268;20.968;2023-02-28T10:31:21;22.40;44.70
17200;DHT22;8716;52.268;20.968;2023-02-28T10:33:55;22.10;45.00
17200;DHT22;8716;52.268;20.968;2023-02-28T10:36:24;22.00;44.90
17200;DHT22;8716;52.268;20.968;2023-02-28T10:38:52;21.90;45.20
17200;DHT22;8716;52.268;20.968;2023-02-28T10:41:30;21.80;45.10
17200;DHT22;8716;52.268;20.968;2023-02-28T10:44:17;21.90;45.60
17200;DHT22;8716;52.268;20.968;2023-02-28T10:46:48;21.70;45.30
17200;DHT22;8716;52.268;20.968;2023-02-28T10:49:19;21.40;45.20
17200;DHT22;8716;52.268;20.968;2023-02-28T10:51:51;21.30;45.80
17200;DHT22;8716;52.268;20.968;2023-02-28T10:54:24;21.30;46.50
17200;DHT22;8716;52.268;20.968;2023-02-28T10:57:15;21.30;46.50
17200;DHT22;8716;52.268;20.968;2023-02-28T10:59:45;21.30;45.60
17200;DHT22;8716;52.268;20.968;2023-02-28T11:02:31;21.00;45.90
17200;DHT22;8716;52.268;20.968;2023-02-28T11:05:27;20.70;45.80
17200;DHT22;8716;52.268;20.968;2023-02-28T11:07:59;20.40;46.90
17200;DHT22;8716;52.268;20.968;2023-02-28T11:10:31;20.20;47.00
17200;DHT22;8716;52.268;20.968;2023-02-28T11:13:03;20.00;47.20
17200;DHT22;8716;52.268;20.968;2023-02-28T11:15:33;19.90;47.30
17200;DHT22;8716;52.268;20.968;2023-02-28T11:18:17;19.90;47.20
17200;DHT22;8716;52.268;20.968;2023-02-28T11:20:49;19.70;48.20
17200;DHT22;8716;52.268;20.968;2023-02-28T11:23:21;19.60;48.60
17200;DHT22;8716;52.268;20.968;2023-02-28T11:25:52;19.40;47.90
17200;DHT22;8716;52.268;20.968;2023-02-28T11:28:28;19.00;47.50
17200;DHT22;8716;52.268;20.968;2023-02-28T11:31:04;18.50;48.20
17200;DHT22;8716;52.268;20.968;2023-02-28T11:33:41;18.20;49.10
17200;DHT22;8716;52.268;20.968;2023-02-28T11:36:14;17.20;48.70
17200;DHT22;8716;52.268;20.968;2023-02-28T11:38:44;15.50;50.70
17200;DHT22;8716;52.268;20.968;2023-02-28T11:41:22;14.30;52.50
17200;DHT22;8716;52.268;20.968;2023-02-28T11:44:08;13.10;54.20
17200;DHT22;8716;52.268;20.968;2023-02-28T11:46:43;12.10;55.90
17200;DHT22;8716;52.268;20.968;2023-02-28T11:49:22;11.60;57.20
17200;DHT22;8716;52.268;20.968;2023-02-28T11:52:00;11.00;58.10
17200;DHT22;8716;52.268;20.968;2023-02-28T11:54:59;10.50;59.00
17200;DHT22;8716;52.268;20.968;2023-02-28T11:57:46;10.00;60.00
17200;DHT22;8716;52.268;20.968;2023-02-28T12:00:40;9.30;61.00
17200;DHT22;8716;52.268;20.968;2023-02-28T12:03:19;9.00;62.20
17200;DHT22;8716;52.268;20.968;2023-02-28T12:05:58;8.70;63.50
17200;DHT22;8716;52.268;20.968;2023-02-28T12:08:46;8.50;64.50
17200;DHT22;8716;52.268;20.968;2023-02-28T12:11:23;8.10;64.90
17200;DHT22;8716;52.268;20.968;2023-02-28T12:17:02;7.80;66.50
17200;DHT22;8716;52.268;20.968;2023-02-28T12:19:42;7.50;67.40
17200;DHT22;8716;52.268;20.968;2023-02-28T12:22:32;7.30;67.70
17200;DHT22;8716;52.268;20.968;2023-02-28T12:28:17;7.00;69.00
17200;DHT22;8716;52.268;20.968;2023-02-28T12:30:53;6.80;69.50
17200;DHT22;8716;52.268;20.968;2023-02-28T12:33:32;6.80;69.60
17200;DHT22;8716;52.268;20.968;2023-02-28T12:36:07;6.70;69.70
17200;DHT22;8716;52.268;20.968;2023-02-28T12:38:40;6.60;70.10
17200;DHT22;8716;52.268;20.968;2023-02-28T12:41:13;6.70;70.50
17200;DHT22;8716;52.268;20.968;2023-02-28T12:43:46;6.90;70.60
17200;DHT22;8716;52.268;20.968;2023-02-28T12:46:19;7.20;70.60
17200;DHT22;8716;52.268;20.968;2023-02-28T12:48:55;7.50;71.20
17200;DHT22;8716;52.268;20.968;2023-02-28T12:51:25;7.80;70.30
17200;DHT22;8716;52.268;20.968;2023-02-28T12:54:03;8.00;70.20
17200;DHT22;8716;52.268;20.968;2023-02-28T12:56:40;8.30;70.30
17200;DHT22;8716;52.268;20.968;2023-02-28T12:59:14;8.50;69.30
17200;DHT22;8716;52.268;20.968;2023-02-28T13:01:56;8.70;69.50
17200;DHT22;8716;52.268;20.968;2023-02-28T13:04:49;8.80;69.40
17200;DHT22;8716;52.268;20.968;2023-02-28T13:10:39;9.10;69.50
17200;DHT22;8716;52.268;20.968;2023-02-28T13:13:14;9.10;68.10
17200;DHT22;8716;52.268;20.968;2023-02-28T13:16:01;9.10;68.40
17200;DHT22;8716;52.268;20.968;2023-02-28T13:18:32;9.20;68.40
17200;DHT22;8716;52.268;20.968;2023-02-28T13:21:06;9.10;68.40
17200;DHT22;8716;52.268;20.968;2023-02-28T13:23:58;9.00;68.20
17200;DHT22;8716;52.268;20.968;2023-02-28T13:29:54;8.70;68.30
17200;DHT22;8716;52.268;20.968;2023-02-28T13:32:40;8.70;69.80
17200;DHT22;8716;52.268;20.968;2023-02-28T13:35:38;8.70;69.50
17200;DHT22;8716;52.268;20.968;2023-02-28T13:38:38;8.70;69.30
17200;DHT22;8716;52.268;20.968;2023-02-28T13:41:45;8.60;69.90
17200;DHT22;8716;52.268;20.968;2023-02-28T13:44:19;8.60;70.00
17200;DHT22;8716;52.268;20.968;2023-02-28T13:47:56;8.60;70.20
17200;DHT22;8716;52.268;20.968;2023-02-28T13:57:44;8.40;69.80
17200;DHT22;8716;52.268;20.968;2023-02-28T14:08:13;8.20;71.70
17200;DHT22;8716;52.268;20.968;2023-02-28T14:10:46;8.30;71.80
17200;DHT22;8716;52.268;20.968;2023-02-28T14:34:11;7.30;73.50
17200;DHT22;8716;52.268;20.968;2023-02-28T14:37:26;7.10;74.00
17200;DHT22;8716;52.268;20.968;2023-02-28T14:39:59;7.10;74.40
17200;DHT22;8716;52.268;20.968;2023-02-28T14:42:33;7.00;74.90
17200;DHT22;8716;52.268;20.968;2023-02-28T14:45:03;6.80;75.10
17200;DHT22;8716;52.268;20.968;2023-02-28T14:47:46;6.60;75.30
17200;DHT22;8716;52.268;20.968;2023-02-28T14:50:20;6.50;75.70
17200;DHT22;8716;52.268;20.968;2023-02-28T14:52:53;6.40;76.40
17200;DHT22;8716;52.268;20.968;2023-02-28T14:55:25;6.20;76.90
17200;DHT22;8716;52.268;20.968;2023-02-28T14:57:58;6.20;77.50
17200;DHT22;8716;52.268;20.968;2023-02-28T15:04:24;6.00;78.00
17200;DHT22;8716;52.268;20.968;2023-02-28T15:07:44;5.90;78.30
17200;DHT22;8716;52.268;20.968;2023-02-28T15:10:20;5.80;79.00
17200;DHT22;8716;52.268;20.968;2023-02-28T15:12:53;5.60;79.40
17200;DHT22;8716;52.268;20.968;2023-02-28T15:15:27;5.60;80.10
17200;DHT22;8716;52.268;20.968;2023-02-28T15:18:15;5.50;80.50
17200;DHT22;8716;52.268;20.968;2023-02-28T15:28:25;5.20;82.00
17200;DHT22;8716;52.268;20.968;2023-02-28T15:35:34;4.90;83.40
17200;DHT22;8716;52.268;20.968;2023-02-28T15:38:58;4.80;84.30
17200;DHT22;8716;52.268;20.968;2023-02-28T15:41:51;4.70;84.80
17200;DHT22;8716;52.268;20.968;2023-02-28T15:44:42;4.70;85.40
17200;DHT22;8716;52.268;20.968;2023-02-28T15:47:17;4.60;85.90
17200;DHT22;8716;52.268;20.968;2023-02-28T15:56:35;4.50;86.80
17200;DHT22;8716;52.268;20.968;2023-02-28T15:57:23;4.40;87.50
17200;DHT22;8716;52.268;20.968;2023-02-28T16:00:12;4.30;88.20
17200;DHT22;8716;52.268;20.968;2023-02-28T16:15:05;4.00;90.40
17200;DHT22;8716;52.268;20.968;2023-02-28T16:26:56;3.50;92.20
17200;DHT22;8716;52.268;20.968;2023-02-28T16:35:35;3.20;93.50
17200;DHT22;8716;52.268;20.968;2023-02-28T16:51:25;2.70;97.70
17200;DHT22;8716;52.268;20.968;2023-02-28T17:02:31;2.40;99.90
17200;DHT22;8716;52.268;20.968;2023-02-28T17:06:15;2.30;99.90
17200;DHT22;8716;52.268;20.968;2023-02-28T17:09:22;2.20;99.90
17200;DHT22;8716;52.268;20.968;2023-02-28T17:12:08;2.10;99.90
17200;DHT22;8716;52.268;20.968;2023-02-28T17:14:38;2.10;99.90
17200;DHT22;8716;52.268;20.968;2023-02-28T17:17:10;2.10;99.90
17200;DHT22;8716;52.268;20.968;2023-02-28T17:19:57;2.00;99.90
17200;DHT22;8716;52.268;20.968;2023-02-28T17:23:19;2.00;99.90
17200;DHT22;8716;52.268;20.968;2023-02-28T17:27:00;1.90;99.90
17200;DHT22;8716;52.268;20.968;2023-02-28T17:29:28;1.80;99.90
17200;DHT22;8716;52.268;20.968;2023-02-28T17:31:59;1.80;99.90
17200;DHT22;8716;52.268;20.968;2023-02-28T17:34:43;1.70;99.90
17200;DHT22;8716;52.268;20.968;2023-02-28T17:37:13;1.70;99.90
17200;DHT22;8716;52.268;20.968;2023-02-28T17:39:42;1.60;99.90
17200;DHT22;8716;52.268;20.968;2023-02-28T17:42:11;1.60;99.90
17200;DHT22;8716;52.268;20.968;2023-02-28T17:44:39;1.50;99.90
17200;DHT22;8716;52.268;20.968;2023-02-28T17:47:10;1.50;99.90
17200;DHT22;8716;52.268;20.968;2023-02-28T17:49:39;1.50;99.90
17200;DHT22;8716;52.268;20.968;2023-02-28T17:52:08;1.50;99.90
17200;DHT22;8716;52.268;20.968;2023-02-28T17:54:37;1.50;99.90
17200;DHT22;8716;52.268;20.968;2023-02-28T17:57:11;1.50;99.90
17200;DHT22;8716;52.268;20.968;2023-02-28T17:59:40;1.50;99.90
17200;DHT22;8716;52.268;20.968;2023-02-28T18:02:11;1.50;99.90
17200;DHT22;8716;52.268;20.968;2023-02-28T18:04:41;1.40;99.90
17200;DHT22;8716;52.268;20.968;2023-02-28T18:07:11;1.40;99.90
17200;DHT22;8716;52.268;20.968;2023-02-28T18:09:39;1.30;99.90
17200;DHT22;8716;52.268;20.968;2023-02-28T18:12:09;1.30;99.90
17200;DHT22;8716;52.268;20.968;2023-02-28T18:14:37;1.30;99.90
17200;DHT22;8716;52.268;20.968;2023-02-28T18:17:06;1.30;99.90
17200;DHT22;8716;52.268;20.968;2023-02-28T18:19:34;1.20;99.90
17200;DHT22;8716;52.268;20.968;2023-02-28T18:22:07;1.20;99.90
17200;DHT22;8716;52.268;20.968;2023-02-28T18:24:36;1.20;99.90
17200;DHT22;8716;52.268;20.968;2023-02-28T18:27:09;1.20;99.90
17200;DHT22;8716;52.268;20.968;2023-02-28T18:29:38;1.20;99.90